sensor_id;sensor_type;location;lat;lon;timestamp;pressure;altitude;pressure_sealevel;temperature;humidity
29385;BME280;16367;48.736;9.218;2022-11-23T00:01:30;-23268.44;;;3.16;100.00
29385;BME280;16367;48.736;9.218;2022-11-23T00:03:33;-23267.19;;;3.12;100.00
29385;BME280;16367;48.736;9.218;2022-11-23T00:05:37;-23266.53;;;3.10;100.00
29385;BME280;16367;48.736;9.218;2022-11-23T00:07:40;-23268.78;;;3.17;100.00
29385;BME280;16367;48.736;9.218;2022-11-23T00:09:43;-23267.50;;;3.13;100.00
29385;BME280;16367;48.736;9.218;2022-11-23T00:11:45;-23266.53;;;3.10;100.00
29385;BME280;16367;48.736;9.218;2022-11-23T00:13:48;-23265.59;;;3.07;100.00
29385;BME280;16367;48.736;9.218;2022-11-23T00:15:51;-23265.25;;;3.06;100.00
29385;BME280;16367;48.736;9.218;2022-11-23T00:17:54;-23264.63;;;3.04;100.00
29385;BME280;16367;48.736;9.218;2022-11-23T00:19:57;-23264.00;;;3.02;100.00
29385;BME280;16367;48.736;9.218;2022-11-23T00:22:01;-23262.41;;;2.97;100.00
29385;BME280;16367;48.736;9.218;2022-11-23T00:24:04;-23262.22;;;2.96;100.00
29385;BME280;16367;48.736;9.218;2022-11-23T00:26:07;-23261.44;;;2.94;100.00
29385;BME280;16367;48.736;9.218;2022-11-23T00:28:10;-23264.00;;;3.02;100.00
29385;BME280;16367;48.736;9.218;2022-11-23T00:30:13;-23262.41;;;2.97;100.00
29385;BME280;16367;48.736;9.218;2022-11-23T00:32:16;-23262.22;;;2.96;100.00
29385;BME280;16367;48.736;9.218;2022-11-23T00:34:19;-23260.97;;;2.92;100.00
29385;BME280;16367;48.736;9.218;2022-11-23T00:36:23;-23261.28;;;2.93;100.00
29385;BME280;16367;48.736;9.218;2022-11-23T00:38:28;-23260.16;;;2.90;100.00
29385;BME280;16367;48.736;9.218;2022-11-23T00:40:31;-23259.69;;;2.88;100.00
29385;BME280;16367;48.736;9.218;2022-11-23T00:42:33;-23261.44;;;2.94;100.00
29385;BME280;16367;48.736;9.218;2022-11-23T00:44:38;-23260.47;;;2.91;100.00
29385;BME280;16367;48.736;9.218;2022-11-23T00:46:41;-23259.84;;;2.89;100.00
29385;BME280;16367;48.736;9.218;2022-11-23T00:48:45;-23258.88;;;2.86;100.00
29385;BME280;16367;48.736;9.218;2022-11-23T00:50:48;-23259.22;;;2.87;100.00
29385;BME280;16367;48.736;9.218;2022-11-23T00:52:51;-23258.25;;;2.84;100.00
29385;BME280;16367;48.736;9.218;2022-11-23T00:54:55;-23258.88;;;2.86;100.00
29385;BME280;16367;48.736;9.218;2022-11-23T00:56:58;-23259.38;;;2.87;100.00
29385;BME280;16367;48.736;9.218;2022-11-23T00:59:01;-23259.84;;;2.89;100.00
29385;BME280;16367;48.736;9.218;2022-11-23T01:01:06;-23260.16;;;2.90;100.00
29385;BME280;16367;48.736;9.218;2022-11-23T01:03:09;-23260.00;;;2.89;100.00
29385;BME280;16367;48.736;9.218;2022-11-23T01:05:12;-23260.16;;;2.90;100.00
29385;BME280;16367;48.736;9.218;2022-11-23T01:07:15;-23261.75;;;2.95;100.00
29385;BME280;16367;48.736;9.218;2022-11-23T01:09:17;-23264.00;;;3.02;100.00
29385;BME280;16367;48.736;9.218;2022-11-23T01:11:28;-23261.13;;;2.93;100.00
29385;BME280;16367;48.736;9.218;2022-11-23T01:13:32;-23262.72;;;2.98;100.00
29385;BME280;16367;48.736;9.218;2022-11-23T01:15:34;-23262.72;;;2.98;100.00
29385;BME280;16367;48.736;9.218;2022-11-23T01:17:37;-23266.22;;;3.09;100.00
29385;BME280;16367;48.736;9.218;2022-11-23T01:19:40;-23263.19;;;2.99;100.00
29385;BME280;16367;48.736;9.218;2022-11-23T01:21:43;-23264.00;;;3.02;100.00
29385;BME280;16367;48.736;9.218;2022-11-23T01:23:46;-23265.44;;;3.07;100.00
29385;BME280;16367;48.736;9.218;2022-11-23T01:25:48;-23271.00;;;3.24;100.00
29385;BME280;16367;48.736;9.218;2022-11-23T01:27:58;-23272.44;;;3.29;100.00
29385;BME280;16367;48.736;9.218;2022-11-23T01:30:01;-23274.03;;;3.34;100.00
29385;BME280;16367;48.736;9.218;2022-11-23T01:32:04;-23277.06;;;3.43;100.00
29385;BME280;16367;48.736;9.218;2022-11-23T01:34:07;-23278.66;;;3.48;100.00
29385;BME280;16367;48.736;9.218;2022-11-23T01:36:13;-23277.38;;;3.44;100.00
29385;BME280;16367;48.736;9.218;2022-11-23T01:38:17;-23277.69;;;3.45;100.00
29385;BME280;16367;48.736;9.218;2022-11-23T01:40:20;-23279.28;;;3.50;100.00
29385;BME280;16367;48.736;9.218;2022-11-23T01:42:38;-23278.66;;;3.48;100.00
29385;BME280;16367;48.736;9.218;2022-11-23T01:44:42;-23277.22;;;3.44;100.00
29385;BME280;16367;48.736;9.218;2022-11-23T01:46:45;-23277.38;;;3.44;100.00
29385;BME280;16367;48.736;9.218;2022-11-23T01:48:50;-23276.25;;;3.41;100.00
29385;BME280;16367;48.736;9.218;2022-11-23T01:50:55;-23272.28;;;3.28;100.00
29385;BME280;16367;48.736;9.218;2022-11-23T01:52:59;-23272.59;;;3.29;100.00
29385;BME280;16367;48.736;9.218;2022-11-23T01:55:03;-23268.44;;;3.16;100.00
29385;BME280;16367;48.736;9.218;2022-11-23T01:57:11;-23268.94;;;3.18;100.00
29385;BME280;16367;48.736;9.218;2022-11-23T01:59:19;-23270.03;;;3.21;100.00
29385;BME280;16367;48.736;9.218;2022-11-23T02:01:24;-23271.16;;;3.25;100.00
29385;BME280;16367;48.736;9.218;2022-11-23T02:03:28;-23268.44;;;3.16;100.00
29385;BME280;16367;48.736;9.218;2022-11-23T02:05:35;-23268.13;;;3.15;100.00
29385;BME280;16367;48.736;9.218;2022-11-23T02:07:40;-23268.28;;;3.16;100.00
29385;BME280;16367;48.736;9.218;2022-11-23T02:09:44;-23267.81;;;3.14;100.00
29385;BME280;16367;48.736;9.218;2022-11-23T02:11:47;-23268.13;;;3.15;100.00
29385;BME280;16367;48.736;9.218;2022-11-23T02:13:50;-23265.91;;;3.08;100.00
29385;BME280;16367;48.736;9.218;2022-11-23T02:15:54;-23262.72;;;2.98;100.00
29385;BME280;16367;48.736;9.218;2022-11-23T02:18:01;-23263.84;;;3.01;100.00
29385;BME280;16367;48.736;9.218;2022-11-23T02:20:08;-23261.75;;;2.95;100.00
29385;BME280;16367;48.736;9.218;2022-11-23T02:22:18;-23262.22;;;2.96;100.00
29385;BME280;16367;48.736;9.218;2022-11-23T02:24:27;-23260.66;;;2.91;100.00
29385;BME280;16367;48.736;9.218;2022-11-23T02:26:34;-23259.38;;;2.87;100.00
29385;BME280;16367;48.736;9.218;2022-11-23T02:28:42;-23259.03;;;2.86;100.00
29385;BME280;16367;48.736;9.218;2022-11-23T02:30:48;-23257.78;;;2.82;100.00
29385;BME280;16367;48.736;9.218;2022-11-23T02:32:52;-23260.47;;;2.91;100.00
29385;BME280;16367;48.736;9.218;2022-11-23T02:34:54;-23257.94;;;2.83;100.00
29385;BME280;16367;48.736;9.218;2022-11-23T02:36:57;-23261.75;;;2.95;100.00
29385;BME280;16367;48.736;9.218;2022-11-23T02:39:03;-23260.47;;;2.91;100.00
29385;BME280;16367;48.736;9.218;2022-11-23T02:41:08;-23259.38;;;2.87;100.00
29385;BME280;16367;48.736;9.218;2022-11-23T02:43:12;-23259.03;;;2.86;100.00
29385;BME280;16367;48.736;9.218;2022-11-23T02:45:23;-23256.81;;;2.79;100.00
29385;BME280;16367;48.736;9.218;2022-11-23T02:47:28;-23256.00;;;2.77;100.00
29385;BME280;16367;48.736;9.218;2022-11-23T02:49:31;-23255.38;;;2.75;100.00
29385;BME280;16367;48.736;9.218;2022-11-23T02:51:35;-23256.50;;;2.78;100.00
29385;BME280;16367;48.736;9.218;2022-11-23T02:53:37;-23254.44;;;2.72;100.00
29385;BME280;16367;48.736;9.218;2022-11-23T02:55:40;-23251.88;;;2.64;100.00
29385;BME280;16367;48.736;9.218;2022-11-23T02:57:43;-23252.50;;;2.66;100.00
29385;BME280;16367;48.736;9.218;2022-11-23T02:59:47;-23250.28;;;2.59;100.00
29385;BME280;16367;48.736;9.218;2022-11-23T03:01:50;-23251.22;;;2.62;100.00
29385;BME280;16367;48.736;9.218;2022-11-23T03:03:53;-23252.50;;;2.66;100.00
29385;BME280;16367;48.736;9.218;2022-11-23T03:05:55;-23252.66;;;2.66;100.00
29385;BME280;16367;48.736;9.218;2022-11-23T03:07:58;-23250.13;;;2.58;100.00
29385;BME280;16367;48.736;9.218;2022-11-23T03:10:01;-23252.19;;;2.65;100.00
29385;BME280;16367;48.736;9.218;2022-11-23T03:12:04;-23251.88;;;2.64;100.00
29385;BME280;16367;48.736;9.218;2022-11-23T03:14:07;-23249.78;;;2.57;100.00
29385;BME280;16367;48.736;9.218;2022-11-23T03:16:11;-23249.97;;;2.58;100.00
29385;BME280;16367;48.736;9.218;2022-11-23T03:18:14;-23247.56;;;2.50;100.00
29385;BME280;16367;48.736;9.218;2022-11-23T03:20:17;-23249.16;;;2.55;100.00
29385;BME280;16367;48.736;9.218;2022-11-23T03:22:20;-23249.63;;;2.57;100.00
29385;BME280;16367;48.736;9.218;2022-11-23T03:24:23;-23252.50;;;2.66;100.00
29385;BME280;16367;48.736;9.218;2022-11-23T03:26:26;-23254.09;;;2.71;100.00
29385;BME280;16367;48.736;9.218;2022-11-23T03:28:28;-23251.88;;;2.64;100.00
29385;BME280;16367;48.736;9.218;2022-11-23T03:30:31;-23251.88;;;2.64;100.00
29385;BME280;16367;48.736;9.218;2022-11-23T03:32:36;-23254.91;;;2.73;100.00
29385;BME280;16367;48.736;9.218;2022-11-23T03:34:38;-23255.69;;;2.76;100.00
29385;BME280;16367;48.736;9.218;2022-11-23T03:36:41;-23260.47;;;2.91;100.00
29385;BME280;16367;48.736;9.218;2022-11-23T03:38:44;-23262.06;;;2.96;100.00
29385;BME280;16367;48.736;9.218;2022-11-23T03:40:47;-23260.47;;;2.91;100.00
29385;BME280;16367;48.736;9.218;2022-11-23T03:42:50;-23262.72;;;2.98;100.00
29385;BME280;16367;48.736;9.218;2022-11-23T03:44:52;-23265.09;;;3.06;100.00
29385;BME280;16367;48.736;9.218;2022-11-23T03:46:55;-23265.91;;;3.08;100.00
29385;BME280;16367;48.736;9.218;2022-11-23T03:48:59;-23264.63;;;3.04;100.00
29385;BME280;16367;48.736;9.218;2022-11-23T03:51:02;-23265.09;;;3.06;100.00
29385;BME280;16367;48.736;9.218;2022-11-23T03:53:05;-23264.78;;;3.05;100.00
29385;BME280;16367;48.736;9.218;2022-11-23T03:55:08;-23263.50;;;3.00;100.00
29385;BME280;16367;48.736;9.218;2022-11-23T03:57:11;-23263.03;;;2.99;100.00
29385;BME280;16367;48.736;9.218;2022-11-23T03:59:14;-23263.50;;;3.00;100.00
29385;BME280;16367;48.736;9.218;2022-11-23T04:01:16;-23262.06;;;2.96;100.00
29385;BME280;16367;48.736;9.218;2022-11-23T04:03:19;-23262.72;;;2.98;100.00
29385;BME280;16367;48.736;9.218;2022-11-23T04:05:23;-23264.94;;;3.05;100.00
29385;BME280;16367;48.736;9.218;2022-11-23T04:07:28;-23264.94;;;3.05;100.00
29385;BME280;16367;48.736;9.218;2022-11-23T04:09:31;-23264.94;;;3.05;100.00
29385;BME280;16367;48.736;9.218;2022-11-23T04:11:34;-23266.53;;;3.10;100.00
29385;BME280;16367;48.736;9.218;2022-11-23T04:13:37;-23269.41;;;3.19;100.00
29385;BME280;16367;48.736;9.218;2022-11-23T04:15:39;-23266.53;;;3.10;100.00
29385;BME280;16367;48.736;9.218;2022-11-23T04:17:42;-23268.13;;;3.15;100.00
29385;BME280;16367;48.736;9.218;2022-11-23T04:19:45;-23267.81;;;3.14;100.00
29385;BME280;16367;48.736;9.218;2022-11-23T04:21:49;-23267.00;;;3.12;100.00
29385;BME280;16367;48.736;9.218;2022-11-23T04:23:51;-23265.91;;;3.08;100.00
29385;BME280;16367;48.736;9.218;2022-11-23T04:25:54;-23266.88;;;3.11;100.00
29385;BME280;16367;48.736;9.218;2022-11-23T04:27:57;-23267.00;;;3.12;100.00
29385;BME280;16367;48.736;9.218;2022-11-23T04:30:00;-23265.59;;;3.07;100.00
29385;BME280;16367;48.736;9.218;2022-11-23T04:32:03;-23264.31;;;3.03;100.00
29385;BME280;16367;48.736;9.218;2022-11-23T04:34:05;-23262.88;;;2.98;100.00
29385;BME280;16367;48.736;9.218;2022-11-23T04:36:08;-23264.63;;;3.04;100.00
29385;BME280;16367;48.736;9.218;2022-11-23T04:38:12;-23263.19;;;2.99;100.00
29385;BME280;16367;48.736;9.218;2022-11-23T04:40:15;-23263.84;;;3.01;100.00
29385;BME280;16367;48.736;9.218;2022-11-23T04:42:18;-23263.03;;;2.99;100.00
29385;BME280;16367;48.736;9.218;2022-11-23T04:44:21;-23262.72;;;2.98;100.00
29385;BME280;16367;48.736;9.218;2022-11-23T04:46:24;-23263.34;;;3.00;100.00
29385;BME280;16367;48.736;9.218;2022-11-23T04:48:27;-23261.75;;;2.95;100.00
29385;BME280;16367;48.736;9.218;2022-11-23T04:50:29;-23263.84;;;3.01;100.00
29385;BME280;16367;48.736;9.218;2022-11-23T04:52:32;-23263.34;;;3.00;100.00
29385;BME280;16367;48.736;9.218;2022-11-23T04:54:45;-23263.03;;;2.99;100.00
29385;BME280;16367;48.736;9.218;2022-11-23T04:56:48;-23261.13;;;2.93;100.00
29385;BME280;16367;48.736;9.218;2022-11-23T04:58:51;-23259.84;;;2.89;100.00
29385;BME280;16367;48.736;9.218;2022-11-23T05:00:54;-23260.81;;;2.92;100.00
29385;BME280;16367;48.736;9.218;2022-11-23T05:02:58;-23264.31;;;3.03;100.00
29385;BME280;16367;48.736;9.218;2022-11-23T05:05:01;-23267.81;;;3.14;100.00
29385;BME280;16367;48.736;9.218;2022-11-23T05:07:04;-23267.00;;;3.12;100.00
29385;BME280;16367;48.736;9.218;2022-11-23T05:09:07;-23267.19;;;3.12;100.00
29385;BME280;16367;48.736;9.218;2022-11-23T05:11:11;-23265.75;;;3.08;100.00
29385;BME280;16367;48.736;9.218;2022-11-23T05:13:14;-23267.81;;;3.14;100.00
29385;BME280;16367;48.736;9.218;2022-11-23T05:15:16;-23268.63;;;3.17;100.00
29385;BME280;16367;48.736;9.218;2022-11-23T05:17:19;-23267.50;;;3.13;100.00
29385;BME280;16367;48.736;9.218;2022-11-23T05:19:22;-23270.38;;;3.22;100.00
29385;BME280;16367;48.736;9.218;2022-11-23T05:21:25;-23269.72;;;3.20;100.00
29385;BME280;16367;48.736;9.218;2022-11-23T05:23:27;-23269.72;;;3.20;100.00
29385;BME280;16367;48.736;9.218;2022-11-23T05:25:30;-23269.72;;;3.20;100.00
29385;BME280;16367;48.736;9.218;2022-11-23T05:27:35;-23270.53;;;3.23;100.00
29385;BME280;16367;48.736;9.218;2022-11-23T05:29:37;-23272.91;;;3.30;100.00
29385;BME280;16367;48.736;9.218;2022-11-23T05:31:40;-23273.41;;;3.32;100.00
29385;BME280;16367;48.736;9.218;2022-11-23T05:33:43;-23273.22;;;3.31;100.00
29385;BME280;16367;48.736;9.218;2022-11-23T05:35:46;-23274.19;;;3.34;100.00
29385;BME280;16367;48.736;9.218;2022-11-23T05:37:49;-23275.31;;;3.38;100.00
29385;BME280;16367;48.736;9.218;2022-11-23T05:39:51;-23274.19;;;3.34;100.00
29385;BME280;16367;48.736;9.218;2022-11-23T05:41:54;-23273.88;;;3.33;100.00
29385;BME280;16367;48.736;9.218;2022-11-23T05:43:58;-23275.63;;;3.39;100.00
29385;BME280;16367;48.736;9.218;2022-11-23T05:46:01;-23273.22;;;3.31;100.00
29385;BME280;16367;48.736;9.218;2022-11-23T05:48:04;-23271.97;;;3.27;100.00
29385;BME280;16367;48.736;9.218;2022-11-23T05:50:08;-23274.19;;;3.34;100.00
29385;BME280;16367;48.736;9.218;2022-11-23T05:52:11;-23271.81;;;3.27;100.00
29385;BME280;16367;48.736;9.218;2022-11-23T05:54:13;-23270.53;;;3.23;100.00
29385;BME280;16367;48.736;9.218;2022-11-23T05:56:16;-23268.44;;;3.16;100.00
29385;BME280;16367;48.736;9.218;2022-11-23T05:58:19;-23270.84;;;3.24;100.00
29385;BME280;16367;48.736;9.218;2022-11-23T06:00:23;-23266.88;;;3.11;100.00
29385;BME280;16367;48.736;9.218;2022-11-23T06:02:26;-23270.69;;;3.23;100.00
29385;BME280;16367;48.736;9.218;2022-11-23T06:04:28;-23268.44;;;3.16;100.00
29385;BME280;16367;48.736;9.218;2022-11-23T06:06:31;-23268.63;;;3.17;100.00
29385;BME280;16367;48.736;9.218;2022-11-23T06:08:34;-23267.00;;;3.12;100.00
29385;BME280;16367;48.736;9.218;2022-11-23T06:10:36;-23270.69;;;3.23;100.00
29385;BME280;16367;48.736;9.218;2022-11-23T06:12:39;-23268.78;;;3.17;100.00
29385;BME280;16367;48.736;9.218;2022-11-23T06:14:42;-23268.44;;;3.16;100.00
29385;BME280;16367;48.736;9.218;2022-11-23T06:16:46;-23269.09;;;3.18;100.00
29385;BME280;16367;48.736;9.218;2022-11-23T06:18:49;-23268.44;;;3.16;100.00
29385;BME280;16367;48.736;9.218;2022-11-23T06:20:51;-23270.38;;;3.22;100.00
29385;BME280;16367;48.736;9.218;2022-11-23T06:22:55;-23270.38;;;3.22;100.00
29385;BME280;16367;48.736;9.218;2022-11-23T06:24:58;-23272.28;;;3.28;100.00
29385;BME280;16367;48.736;9.218;2022-11-23T06:27:01;-23273.72;;;3.33;100.00
29385;BME280;16367;48.736;9.218;2022-11-23T06:29:04;-23274.50;;;3.35;100.00
29385;BME280;16367;48.736;9.218;2022-11-23T06:31:07;-23269.56;;;3.20;100.00
29385;BME280;16367;48.736;9.218;2022-11-23T06:33:11;-23268.44;;;3.16;100.00
29385;BME280;16367;48.736;9.218;2022-11-23T06:35:14;-23265.59;;;3.07;100.00
29385;BME280;16367;48.736;9.218;2022-11-23T06:37:17;-23264.16;;;3.03;100.00
29385;BME280;16367;48.736;9.218;2022-11-23T06:39:19;-23265.59;;;3.07;100.00
29385;BME280;16367;48.736;9.218;2022-11-23T06:41:22;-23265.59;;;3.07;100.00
29385;BME280;16367;48.736;9.218;2022-11-23T06:43:32;-23268.28;;;3.16;100.00
29385;BME280;16367;48.736;9.218;2022-11-23T06:45:35;-23268.13;;;3.15;100.00
29385;BME280;16367;48.736;9.218;2022-11-23T06:47:38;-23269.09;;;3.18;100.00
29385;BME280;16367;48.736;9.218;2022-11-23T06:49:42;-23267.00;;;3.12;100.00
29385;BME280;16367;48.736;9.218;2022-11-23T06:51:44;-23267.97;;;3.15;100.00
29385;BME280;16367;48.736;9.218;2022-11-23T06:53:47;-23267.19;;;3.12;100.00
29385;BME280;16367;48.736;9.218;2022-11-23T06:55:50;-23268.44;;;3.16;100.00
29385;BME280;16367;48.736;9.218;2022-11-23T06:57:53;-23265.59;;;3.07;100.00
29385;BME280;16367;48.736;9.218;2022-11-23T06:59:57;-23264.47;;;3.03;100.00
29385;BME280;16367;48.736;9.218;2022-11-23T07:02:00;-23262.72;;;2.98;100.00
29385;BME280;16367;48.736;9.218;2022-11-23T07:04:03;-23262.56;;;2.97;100.00
29385;BME280;16367;48.736;9.218;2022-11-23T07:06:08;-23263.34;;;3.00;100.00
29385;BME280;16367;48.736;9.218;2022-11-23T07:08:11;-23262.22;;;2.96;100.00
29385;BME280;16367;48.736;9.218;2022-11-23T07:10:14;-23261.75;;;2.95;100.00
29385;BME280;16367;48.736;9.218;2022-11-23T07:12:17;-23261.59;;;2.94;100.00
29385;BME280;16367;48.736;9.218;2022-11-23T07:14:20;-23264.00;;;3.02;100.00
29385;BME280;16367;48.736;9.218;2022-11-23T07:16:23;-23267.50;;;3.13;100.00
29385;BME280;16367;48.736;9.218;2022-11-23T07:18:26;-23269.72;;;3.20;100.00
29385;BME280;16367;48.736;9.218;2022-11-23T07:20:28;-23271.97;;;3.27;100.00
29385;BME280;16367;48.736;9.218;2022-11-23T07:22:32;-23275.00;;;3.37;100.00
29385;BME280;16367;48.736;9.218;2022-11-23T07:24:35;-23274.50;;;3.35;100.00
29385;BME280;16367;48.736;9.218;2022-11-23T07:26:43;-23276.09;;;3.40;100.00
29385;BME280;16367;48.736;9.218;2022-11-23T07:28:45;-23275.47;;;3.38;100.00
29385;BME280;16367;48.736;9.218;2022-11-23T07:30:49;-23276.59;;;3.42;100.00
29385;BME280;16367;48.736;9.218;2022-11-23T07:32:53;-23274.50;;;3.35;100.00
29385;BME280;16367;48.736;9.218;2022-11-23T07:34:56;-23274.81;;;3.36;100.00
29385;BME280;16367;48.736;9.218;2022-11-23T07:36:58;-23275.78;;;3.39;100.00
29385;BME280;16367;48.736;9.218;2022-11-23T07:39:04;-23278.34;;;3.47;100.00
29385;BME280;16367;48.736;9.218;2022-11-23T07:41:07;-23278.19;;;3.47;100.00
29385;BME280;16367;48.736;9.218;2022-11-23T07:43:10;-23283.91;;;3.65;100.00
29385;BME280;16367;48.736;9.218;2022-11-23T07:45:13;-23285.03;;;3.68;100.00
29385;BME280;16367;48.736;9.218;2022-11-23T07:47:16;-23290.59;;;3.86;100.00
29385;BME280;16367;48.736;9.218;2022-11-23T07:49:19;-23293.31;;;3.95;100.00
29385;BME280;16367;48.736;9.218;2022-11-23T07:51:21;-23298.41;;;4.11;100.00
29385;BME280;16367;48.736;9.218;2022-11-23T07:53:24;-23301.13;;;4.19;100.00
29385;BME280;16367;48.736;9.218;2022-11-23T07:55:29;-23306.06;;;4.35;100.00
29385;BME280;16367;48.736;9.218;2022-11-23T07:57:32;-23302.22;;;4.23;100.00
29385;BME280;16367;48.736;9.218;2022-11-23T07:59:34;-23324.53;;;4.93;100.00
29385;BME280;16367;48.736;9.218;2022-11-23T08:01:37;-23329.47;;;5.09;100.00
29385;BME280;16367;48.736;9.218;2022-11-23T08:03:40;-23317.53;;;4.71;100.00
29385;BME280;16367;48.736;9.218;2022-11-23T08:05:43;-23332.00;;;5.17;100.00
29385;BME280;16367;48.736;9.218;2022-11-23T08:07:45;-23321.81;;;4.85;100.00
29385;BME280;16367;48.736;9.218;2022-11-23T08:09:48;-23333.91;;;5.23;100.00
29385;BME280;16367;48.736;9.218;2022-11-23T08:11:53;-23330.41;;;5.12;100.00
29385;BME280;16367;48.736;9.218;2022-11-23T08:13:56;-23333.13;;;5.20;100.00
29385;BME280;16367;48.736;9.218;2022-11-23T08:15:58;-23331.06;;;5.14;100.00
29385;BME280;16367;48.736;9.218;2022-11-23T08:18:02;-23343.94;;;5.55;100.00
29385;BME280;16367;48.736;9.218;2022-11-23T08:20:06;-23358.91;;;6.02;97.29
29385;BME280;16367;48.736;9.218;2022-11-23T08:22:09;-23349.50;;;5.72;97.05
29385;BME280;16367;48.736;9.218;2022-11-23T08:24:16;-23338.53;;;5.38;97.34
29385;BME280;16367;48.736;9.218;2022-11-23T08:26:19;-23350.94;;;5.77;96.22
29385;BME280;16367;48.736;9.218;2022-11-23T08:28:23;-23372.41;;;6.45;93.41
29385;BME280;16367;48.736;9.218;2022-11-23T08:30:27;-23410.06;;;7.64;88.31
29385;BME280;16367;48.736;9.218;2022-11-23T08:32:30;-23406.75;;;7.53;83.04
29385;BME280;16367;48.736;9.218;2022-11-23T08:34:33;-23401.19;;;7.36;83.52
29385;BME280;16367;48.736;9.218;2022-11-23T08:36:36;-23390.06;;;7.01;84.16
29385;BME280;16367;48.736;9.218;2022-11-23T08:38:39;-23391.81;;;7.06;85.64
29385;BME280;16367;48.736;9.218;2022-11-23T08:40:41;-23391.00;;;7.04;85.59
29385;BME280;16367;48.736;9.218;2022-11-23T08:42:45;-23399.91;;;7.32;82.85
29385;BME280;16367;48.736;9.218;2022-11-23T08:44:49;-23405.31;;;7.49;83.71
29385;BME280;16367;48.736;9.218;2022-11-23T08:46:52;-23387.69;;;6.93;84.02
29385;BME280;16367;48.736;9.218;2022-11-23T08:48:54;-23392.75;;;7.09;84.33
29385;BME280;16367;48.736;9.218;2022-11-23T08:50:58;-23394.81;;;7.16;84.38
29385;BME280;16367;48.736;9.218;2022-11-23T08:53:01;-23409.75;;;7.63;84.21
29385;BME280;16367;48.736;9.218;2022-11-23T08:55:05;-23400.88;;;7.35;85.04
29385;BME280;16367;48.736;9.218;2022-11-23T08:57:08;-23392.91;;;7.10;84.28
29385;BME280;16367;48.736;9.218;2022-11-23T08:59:11;-23391.34;;;7.05;84.48
29385;BME280;16367;48.736;9.218;2022-11-23T09:01:16;-23399.91;;;7.32;84.32
29385;BME280;16367;48.736;9.218;2022-11-23T09:03:19;-23382.44;;;6.76;85.60
29385;BME280;16367;48.736;9.218;2022-11-23T09:05:22;-23388.47;;;6.96;85.50
29385;BME280;16367;48.736;9.218;2022-11-23T09:07:25;-23412.31;;;7.71;82.43
29385;BME280;16367;48.736;9.218;2022-11-23T09:09:28;-23410.41;;;7.65;82.97
29385;BME280;16367;48.736;9.218;2022-11-23T09:11:31;-23384.34;;;6.83;84.63
29385;BME280;16367;48.736;9.218;2022-11-23T09:13:34;-23392.44;;;7.08;86.06
29385;BME280;16367;48.736;9.218;2022-11-23T09:15:37;-23398.00;;;7.26;86.04
29385;BME280;16367;48.736;9.218;2022-11-23T09:17:41;-23418.50;;;7.91;83.00
29385;BME280;16367;48.736;9.218;2022-11-23T09:19:44;-23425.63;;;8.13;79.92
29385;BME280;16367;48.736;9.218;2022-11-23T09:21:47;-23473.56;;;9.65;75.12
29385;BME280;16367;48.736;9.218;2022-11-23T09:23:50;-23449.94;;;8.90;76.52
29385;BME280;16367;48.736;9.218;2022-11-23T09:25:53;-23491.94;;;10.24;73.53
29385;BME280;16367;48.736;9.218;2022-11-23T09:27:56;-23465.16;;;9.39;72.61
29385;BME280;16367;48.736;9.218;2022-11-23T09:30:00;-23433.41;;;8.38;77.14
29385;BME280;16367;48.736;9.218;2022-11-23T09:32:03;-23475.16;;;9.70;74.82
29385;BME280;16367;48.736;9.218;2022-11-23T09:34:09;-23482.59;;;9.94;72.08
29385;BME280;16367;48.736;9.218;2022-11-23T09:36:13;-23487.19;;;10.09;70.83
29385;BME280;16367;48.736;9.218;2022-11-23T09:38:16;-23486.88;;;10.08;69.33
29385;BME280;16367;48.736;9.218;2022-11-23T09:40:19;-23486.25;;;10.06;69.26
29385;BME280;16367;48.736;9.218;2022-11-23T09:42:54;-23404.34;;;7.46;79.21
29385;BME280;16367;48.736;9.218;2022-11-23T09:45:10;-23456.44;;;9.11;77.25
29385;BME280;16367;48.736;9.218;2022-11-23T09:47:27;-23396.72;;;7.22;82.21
29385;BME280;16367;48.736;9.218;2022-11-23T09:49:43;-23395.94;;;7.19;84.27
29385;BME280;16367;48.736;9.218;2022-11-23T09:51:49;-23416.75;;;7.85;81.16
29385;BME280;16367;48.736;9.218;2022-11-23T09:53:59;-23420.09;;;7.96;79.90
29385;BME280;16367;48.736;9.218;2022-11-23T09:56:12;-23418.50;;;7.91;81.85
29385;BME280;16367;48.736;9.218;2022-11-23T09:58:19;-23392.13;;;7.07;84.91
29385;BME280;16367;48.736;9.218;2022-11-23T10:00:23;-23404.69;;;7.47;83.70
29385;BME280;16367;48.736;9.218;2022-11-23T10:02:27;-23397.69;;;7.25;83.67
29385;BME280;16367;48.736;9.218;2022-11-23T10:04:33;-23400.88;;;7.35;83.45
29385;BME280;16367;48.736;9.218;2022-11-23T10:06:39;-23394.34;;;7.14;83.87
29385;BME280;16367;48.736;9.218;2022-11-23T10:08:54;-23401.97;;;7.38;80.83
29385;BME280;16367;48.736;9.218;2022-11-23T10:11:13;-23414.84;;;7.79;80.02
29385;BME280;16367;48.736;9.218;2022-11-23T10:13:31;-23413.56;;;7.75;79.38
29385;BME280;16367;48.736;9.218;2022-11-23T10:15:38;-23402.44;;;7.40;79.14
29385;BME280;16367;48.736;9.218;2022-11-23T10:17:58;-23409.59;;;7.63;80.44
29385;BME280;16367;48.736;9.218;2022-11-23T10:20:16;-23393.56;;;7.12;81.28
29385;BME280;16367;48.736;9.218;2022-11-23T10:22:26;-23403.88;;;7.44;80.81
29385;BME280;16367;48.736;9.218;2022-11-23T10:24:32;-23399.44;;;7.30;80.45
29385;BME280;16367;48.736;9.218;2022-11-23T10:26:39;-23396.72;;;7.22;81.85
29385;BME280;16367;48.736;9.218;2022-11-23T10:28:44;-23403.25;;;7.42;81.61
29385;BME280;16367;48.736;9.218;2022-11-23T10:30:52;-23404.34;;;7.46;80.91
29385;BME280;16367;48.736;9.218;2022-11-23T10:32:58;-23405.78;;;7.50;80.87
29385;BME280;16367;48.736;9.218;2022-11-23T10:35:10;-23397.06;;;7.23;80.95
29385;BME280;16367;48.736;9.218;2022-11-23T10:37:14;-23397.22;;;7.23;80.87
29385;BME280;16367;48.736;9.218;2022-11-23T10:39:23;-23405.94;;;7.51;79.61
29385;BME280;16367;48.736;9.218;2022-11-23T10:41:28;-23407.22;;;7.55;81.42
29385;BME280;16367;48.736;9.218;2022-11-23T10:43:37;-23405.94;;;7.51;79.67
29385;BME280;16367;48.736;9.218;2022-11-23T10:45:43;-23407.22;;;7.55;79.41
29385;BME280;16367;48.736;9.218;2022-11-23T10:47:49;-23396.72;;;7.22;79.87
29385;BME280;16367;48.736;9.218;2022-11-23T10:49:56;-23400.22;;;7.33;80.35
29385;BME280;16367;48.736;9.218;2022-11-23T10:52:01;-23403.56;;;7.43;80.97